Historique des mesures à Cassis (13260), France
Quotidien Résumé Aout 10, 2017 Unités:  Métrique    US   Métrique/US
« Précédent (Jour)
Suivant (Jour) »
Quotidien Hebdomadaire Mensuel Annuel Période au choix
  Maximum: Minimum: Moyenne:
Température: TemperatureC °C 18.7 °C 20.8 °C
Point de rosée: DewpointC °C 8.0 °C 9.7 °C
Humidité: Humidity % 36 % 46 %
Vitesse du vent: 0 km/h 9.3 km/h 26.1 km/h
Rafales: 0 km/h - -
Vent:- - SSW
Pression: PressurehPa hPa 1010.0 hPa -
Précipitations: 0.0 mm    
Historical Graphs
 
 
Mesures pour : Aout 10, 2017
Heure Temperature Point de rosée Pression Vent Vitesse du vent Rafales Humidité Pluie (par heure) Conditions
TemperatureC °C DewpointC °C PressurehPa hPa Calm     Humidity % HourlyPrecipMM mm SoftwareType W/m2
00:11 22.2 °C 10.6 °C 1011.7 hPa NNW 35.2 km/h 74 km/h 48 % 0.0 mm open2300-1.11 W/m2
01:11 21.8 °C 10.6 °C 1011.4 hPa NW 36.5 km/h 36.5 km/h 49 % 0.0 mm open2300-1.11 W/m2
02:11 21.3 °C 10.1 °C 1011.7 hPa NW 20.3 km/h 22 km/h 49 % 0.0 mm open2300-1.11 W/m2
03:11 20.7 °C 9.9 °C 1011.4 hPa NW 31.4 km/h 31.4 km/h 50 % 0.0 mm open2300-1.11 W/m2
04:11 20.2 °C 9.5 °C 1011.7 hPa North 34.8 km/h 34.8 km/h 50 % 0.0 mm open2300-1.11 W/m2
06:11 19.3 °C 9.5 °C 1010.0 hPa North 26.7 km/h 33.6 km/h 53 % 0.0 mm open2300-1.11 W/m2
07:11 19.0 °C 9.7 °C 1011.1 hPa North 29.5 km/h 39.4 km/h 55 % 0.0 mm open2300-1.11 W/m2
08:11 18.7 °C 9.2 °C 1012.1 hPa North 17.9 km/h 24.8 km/h 54 % 0.0 mm open2300-1.11 W/m2
09:11 19.0 °C 8.9 °C 1012.4 hPa NW 29.5 km/h 50.5 km/h 52 % 0.0 mm open2300-1.11 W/m2
10:11 20.5 °C 9.1 °C 1011.7 hPa NNW 22.5 km/h 23 km/h 48 % 0.0 mm open2300-1.11 W/m2
11:11 21.3 °C 9.2 °C 1012.1 hPa NNW 29.5 km/h 29.5 km/h 46 % 0.0 mm open2300-1.11 W/m2
12:11 21.4 °C 9.2 °C 1011.7 hPa WNW 20.9 km/h 57.9 km/h 46 % 0.0 mm open2300-1.11 W/m2
13:11 22.2 °C 8.6 °C 1012.1 hPa NNE 29 km/h 29 km/h 42 % 0.0 mm open2300-1.11 W/m2
14:11 24.1 °C 8.0 °C 1011.7 hPa WNW 36.5 km/h 38.3 km/h 36 % 0.0 mm open2300-1.11 W/m2
15:11 24.9 °C 8.7 °C 1011.7 hPa North 25.4 km/h 30.7 km/h 36 % 0.0 mm open2300-1.11 W/m2
16:11 25.2 °C 11.4 °C 1011.7 hPa SE 9.3 km/h 42.2 km/h 42 % 0.0 mm open2300-1.11 W/m2
18:11 24.7 °C 11.9 °C 1010.7 hPa NW 32.3 km/h 42.6 km/h 45 % 0.0 mm open2300-1.11 W/m2
19:11 23.6 °C 12.6 °C 1011.1 hPa NNW 36 km/h 36 km/h 50 % 0.0 mm open2300-1.11 W/m2
20:11 22.8 °C 12.4 °C 1011.4 hPa North 27.2 km/h 47.3 km/h 52 % 0.0 mm open2300-1.11 W/m2
21:11 22.1 °C 12.3 °C 1011.4 hPa NNW 19.2 km/h 37.5 km/h 54 % 0.0 mm open2300-1.11 W/m2
22:11 21.8 °C 10.6 °C 1011.7 hPa NW 30.7 km/h 33.6 km/h 49 % 0.0 mm open2300-1.11 W/m2
23:11 21.2 °C 10.4 °C 1012.1 hPa North 18.7 km/h 20.3 km/h 50 % 0.0 mm open2300-1.11 W/m2
Observations météo à CASSIS
WU-History script by Weather Underground - 1 mb